Time;durP1;ratioP1;P1;durP2;ratioP2;P2;SDS_P1;SDS_P2;PMS_P1;PMS_P2;Temp;Humidity;BMP_temperature;BMP_pressure;BME280_temperature;BME280_humidity;BME280_pressure;Samples;Min_cycle;Max_cycle;Signal;HPM_P1;HPM_P2
2021/08/05 00:00:18;;;;;;;3.67;1.67;;;18.40;55.00;;;;;;5099687;28;20093;-55
2021/08/05 00:02:45;;;;;;;1.17;0.65;;;18.60;54.70;;;;;;5103961;28;20028;-54
2021/08/05 00:05:13;;;;;;;1.67;1.05;;;18.70;54.70;;;;;;5095559;28;20024;-59
2021/08/05 00:07:40;;;;;;;4.18;1.25;;;18.70;54.40;;;;;;5103208;28;20106;-57
2021/08/05 00:10:10;;;;;;;4.22;0.90;;;18.90;54.30;;;;;;5108582;28;20813;-56
2021/08/05 00:12:46;;;;;;;2.17;0.80;;;19.00;54.10;;;;;;5099471;28;20043;-58
2021/08/05 00:15:17;;;;;;;1.00;0.45;;;19.10;53.80;;;;;;5071560;28;20029;-56
2021/08/05 00:17:47;;;;;;;2.65;1.02;;;19.10;53.30;;;;;;5092670;28;20107;-60
2021/08/05 00:20:14;;;;;;;3.22;0.82;;;19.30;53.30;;;;;;5090702;28;20032;-56
2021/08/05 00:22:45;;;;;;;1.75;0.95;;;19.30;53.50;;;;;;5094001;28;20451;-59
2021/08/05 00:25:15;;;;;;;6.03;1.27;;;19.30;53.30;;;;;;5113008;28;20031;-49
2021/08/05 00:27:42;;;;;;;1.35;0.60;;;19.40;52.40;;;;;;5113168;28;20424;-52
2021/08/05 00:30:11;;;;;;;2.38;0.90;;;19.40;51.90;;;;;;5112613;28;20047;-53
2021/08/05 00:32:44;;;;;;;1.30;0.60;;;19.30;52.10;;;;;;5109442;27;20027;-53
2021/08/05 00:35:12;;;;;;;5.20;2.05;;;19.40;52.00;;;;;;5107635;28;20590;-46
2021/08/05 00:37:45;;;;;;;5.13;0.73;;;19.50;50.90;;;;;;5106986;28;20031;-49
2021/08/05 00:40:15;;;;;;;0.90;0.50;;;19.50;51.70;;;;;;5108027;28;20092;-48
2021/08/05 00:42:49;;;;;;;1.52;0.52;;;19.50;51.10;;;;;;5107967;28;20034;-50
2021/08/05 00:45:23;;;;;;;1.42;0.63;;;19.60;51.40;;;;;;5107089;28;20588;-48
2021/08/05 00:47:50;;;;;;;1.15;0.50;;;19.60;52.00;;;;;;5107343;28;20482;-52
2021/08/05 00:50:21;;;;;;;1.02;0.50;;;19.60;51.00;;;;;;5108078;28;20047;-47
2021/08/05 00:52:52;;;;;;;4.35;0.60;;;19.70;51.20;;;;;;5107440;28;20027;-53
2021/08/05 00:55:27;;;;;;;1.35;0.45;;;19.80;50.20;;;;;;5107646;28;20057;-60
2021/08/05 00:57:55;;;;;;;3.15;0.75;;;19.80;50.60;;;;;;5107362;28;20532;-60
2021/08/05 01:00:35;;;;;;;7.07;0.60;;;19.50;52.00;;;;;;5107403;28;20473;-63
2021/08/05 01:03:16;;;;;;;3.13;0.50;;;19.50;52.50;;;;;;5107736;28;20079;-61
2021/08/05 01:05:53;;;;;;;1.65;0.55;;;19.60;52.10;;;;;;5107414;28;20041;-61
2021/08/05 01:08:26;;;;;;;2.05;0.60;;;19.60;52.00;;;;;;5106797;28;20128;-55
2021/08/05 01:11:09;;;;;;;1.05;0.40;;;19.70;52.70;;;;;;5107301;28;20490;-59
2021/08/05 01:13:55;;;;;;;1.85;0.40;;;19.80;52.10;;;;;;5088933;28;20044;-59
2021/08/05 01:16:40;;;;;;;2.35;0.68;;;19.90;52.20;;;;;;5107580;28;20016;-59
2021/08/05 01:19:34;;;;;;;3.05;0.80;;;20.00;52.30;;;;;;5107228;28;20047;-58
2021/08/05 01:22:15;;;;;;;5.65;1.02;;;20.10;52.20;;;;;;5107131;28;20035;-57
2021/08/05 01:24:59;;;;;;;2.33;0.70;;;20.30;51.70;;;;;;5105980;28;20497;-56
2021/08/05 01:27:36;;;;;;;6.22;0.98;;;20.40;51.60;;;;;;5106730;28;21012;-58
2021/08/05 01:30:22;;;;;;;1.83;0.45;;;20.50;51.90;;;;;;5106122;28;20047;-58
2021/08/05 01:32:53;;;;;;;8.60;0.55;;;20.60;51.10;;;;;;5089631;28;20554;-61
2021/08/05 01:35:21;;;;;;;1.17;0.50;;;20.60;51.10;;;;;;5097734;28;20036;-61
2021/08/05 01:37:53;;;;;;;0.85;0.52;;;20.70;51.60;;;;;;5095015;28;20375;-59
2021/08/05 01:40:39;;;;;;;0.68;0.38;;;20.70;52.30;;;;;;5079038;28;20059;-61
2021/08/05 01:43:13;;;;;;;1.70;0.50;;;20.90;51.80;;;;;;5092355;28;20032;-50
2021/08/05 01:45:41;;;;;;;1.33;0.73;;;20.90;51.10;;;;;;5096624;28;20449;-57
2021/08/05 01:48:11;;;;;;;4.78;0.57;;;20.90;50.10;;;;;;5095915;28;20109;-65
2021/08/05 01:50:40;;;;;;;4.97;0.43;;;21.00;51.40;;;;;;5096117;28;20043;-60
2021/08/05 01:53:12;;;;;;;1.65;0.38;;;21.00;51.20;;;;;;5092769;28;20034;-55
2021/08/05 01:55:46;;;;;;;4.82;0.63;;;21.10;50.30;;;;;;5096008;28;20027;-61
2021/08/05 01:58:14;;;;;;;2.28;0.60;;;21.10;51.10;;;;;;5097268;28;20069;-58
2021/08/05 02:00:50;;;;;;;8.57;1.27;;;21.10;50.20;;;;;;5075511;28;20063;-61
2021/08/05 02:03:24;;;;;;;1.65;0.68;;;21.20;50.60;;;;;;5093103;28;20032;-64
2021/08/05 02:06:05;;;;;;;2.50;1.17;;;21.10;51.30;;;;;;5078264;28;20504;-61
2021/08/05 02:08:48;;;;;;;1.10;0.43;;;21.30;51.20;;;;;;5093708;28;20117;-65
2021/08/05 02:11:24;;;;;;;1.80;0.30;;;21.20;50.40;;;;;;5091022;28;20948;-61
2021/08/05 02:13:59;;;;;;;0.90;0.40;;;21.20;51.30;;;;;;5089918;28;20111;-57
2021/08/05 02:16:41;;;;;;;0.88;0.55;;;21.10;50.00;;;;;;5078307;28;20031;-61
2021/08/05 02:19:12;;;;;;;2.25;0.50;;;21.00;51.80;;;;;;5078089;28;20111;-60
2021/08/05 02:21:50;;;;;;;0.95;0.38;;;21.00;52.30;;;;;;5093540;28;20028;-50
2021/08/05 02:24:21;;;;;;;0.82;0.30;;;21.10;51.30;;;;;;5090468;28;20024;-53
2021/08/05 02:27:11;;;;;;;2.45;0.40;;;21.20;52.30;;;;;;5092773;28;20126;-52
2021/08/05 02:29:40;;;;;;;0.88;0.52;;;21.20;51.50;;;;;;5093091;28;20686;-54
2021/08/05 02:32:08;;;;;;;0.63;0.30;;;21.30;52.20;;;;;;5094917;28;20039;-55
2021/08/05 02:34:40;;;;;;;4.53;1.48;;;21.40;50.40;;;;;;5100339;28;20046;-55
2021/08/05 02:37:10;;;;;;;1.48;0.32;;;21.40;50.00;;;;;;5102500;28;20130;-61
2021/08/05 02:39:43;;;;;;;1.55;0.50;;;21.50;49.60;;;;;;5109789;28;20032;-59
2021/08/05 02:42:11;;;;;;;1.17;0.52;;;21.50;51.20;;;;;;5109895;28;20510;-58
2021/08/05 02:45:00;;;;;;;2.35;0.50;;;21.60;52.20;;;;;;5110544;28;20023;-59
2021/08/05 02:47:33;;;;;;;2.35;0.50;;;21.60;49.90;;;;;;5109865;28;20043;-61
2021/08/05 02:50:24;;;;;;;0.93;0.40;;;21.80;49.90;;;;;;5091959;28;20034;-57
2021/08/05 02:52:54;;;;;;;1.58;0.50;;;21.70;50.60;;;;;;5092126;28;20032;-56
2021/08/05 02:55:23;;;;;;;0.75;0.25;;;21.80;51.30;;;;;;5090077;28;20114;-62
2021/08/05 02:57:55;;;;;;;0.52;0.40;;;21.90;51.20;;;;;;5089090;28;20419;-59
2021/08/05 03:03:20;;;;;;;1.55;0.52;;;22.00;51.10;;;;;;5079762;28;20023;-53
2021/08/05 03:05:52;;;;;;;0.77;0.40;;;22.00;50.20;;;;;;5093693;28;20032;-63
2021/08/05 03:08:22;;;;;;;;;;;22.10;50.90;;;;;;5059535;28;20183;-57
2021/08/05 03:10:52;;;;;;;2.00;0.47;;;22.20;50.80;;;;;;5076389;28;20010;-52
2021/08/05 03:13:20;;;;;;;0.60;0.40;;;22.20;49.40;;;;;;5099221;28;20053;-54
2021/08/05 03:15:50;;;;;;;7.05;0.75;;;22.10;50.30;;;;;;5092416;28;20035;-59
2021/08/05 03:18:25;;;;;;;1.40;0.52;;;22.10;48.60;;;;;;5091244;28;20032;-60
2021/08/05 03:20:53;;;;;;;3.92;0.60;;;22.00;50.50;;;;;;5103153;28;20501;-55
2021/08/05 03:23:28;;;;;;;4.88;0.40;;;22.10;49.70;;;;;;5093222;28;20503;-61
2021/08/05 03:25:55;;;;;;;2.17;0.57;;;22.10;51.10;;;;;;5098120;28;20176;-58
2021/08/05 03:28:23;;;;;;;3.22;0.63;;;22.20;49.70;;;;;;5092997;28;20074;-61
2021/08/05 03:30:50;;;;;;;1.25;0.52;;;22.10;50.70;;;;;;5095332;28;20123;-59
2021/08/05 03:33:26;;;;;;;4.18;0.40;;;22.00;50.80;;;;;;5094710;28;20155;-61
2021/08/05 03:35:56;;;;;;;0.50;0.30;;;22.10;50.20;;;;;;5088878;28;20032;-58
2021/08/05 03:38:27;;;;;;;1.35;0.40;;;22.10;49.90;;;;;;5096049;28;20115;-60
2021/08/05 03:41:05;;;;;;;0.30;0.20;;;22.10;51.10;;;;;;5088960;28;20569;-59
2021/08/05 03:43:37;;;;;;;0.70;0.43;;;22.10;50.50;;;;;;5088216;28;20024;-57
2021/08/05 03:46:06;;;;;;;0.63;0.40;;;22.20;51.20;;;;;;5089898;28;20028;-55
2021/08/05 03:48:34;;;;;;;1.98;0.40;;;22.20;50.40;;;;;;5096670;28;20646;-48
2021/08/05 03:51:10;;;;;;;2.88;0.40;;;22.20;50.40;;;;;;5095119;28;20068;-55
2021/08/05 03:53:38;;;;;;;2.08;0.70;;;22.30;49.90;;;;;;5094398;28;20463;-58
2021/08/05 03:56:05;;;;;;;0.70;0.28;;;22.40;49.80;;;;;;5094813;28;20042;-53
2021/08/05 03:58:35;;;;;;;1.23;0.45;;;22.30;50.80;;;;;;5096565;28;20040;-49
2021/08/05 04:01:05;;;;;;;1.20;0.68;;;22.20;50.60;;;;;;5100089;28;20143;-54
2021/08/05 04:03:35;;;;;;;1.85;0.70;;;22.40;50.50;;;;;;5100712;28;20034;-53
2021/08/05 04:06:03;;;;;;;0.68;0.30;;;22.40;49.70;;;;;;5081316;28;20466;-51
2021/08/05 04:08:33;;;;;;;1.17;0.50;;;22.50;50.70;;;;;;5100124;28;20479;-54
2021/08/05 04:11:29;;;;;;;2.35;0.70;;;22.60;50.20;;;;;;5100943;28;20035;-55
2021/08/05 04:13:58;;;;;;;3.28;1.90;;;22.70;49.90;;;;;;5094167;28;20072;-58
2021/08/05 04:16:28;;;;;;;5.47;3.03;;;22.80;49.40;;;;;;5076563;28;20468;-53
2021/08/05 04:19:15;;;;;;;8.93;3.70;;;22.80;49.10;;;;;;5102903;28;20036;-63
2021/08/05 04:21:53;;;;;;;;;;;;;;;;;;;;;
2021/08/05 04:24:21;;;;;;;6.40;2.75;;;22.90;50.00;;;;;;5100092;28;20069;-64
2021/08/05 04:26:49;;;;;;;6.38;3.50;;;23.00;49.90;;;;;;5084712;28;20038;-53
2021/08/05 04:29:17;;;;;;;10.00;5.00;;;22.90;49.80;;;;;;5081363;28;20054;-56
2021/08/05 04:31:47;;;;;;;8.05;4.70;;;23.00;49.50;;;;;;5100314;28;20036;-60
2021/08/05 04:34:18;;;;;;;9.27;3.55;;;23.00;48.70;;;;;;5098088;28;20040;-56
2021/08/05 04:37:06;;;;;;;10.52;3.53;;;23.10;47.00;;;;;;5102524;28;20104;-53
2021/08/05 04:39:47;;;;;;;7.47;3.45;;;23.10;48.80;;;;;;5097647;28;20080;-58
2021/08/05 04:42:16;;;;;;;6.38;4.10;;;23.20;49.90;;;;;;5095415;28;20028;-56
2021/08/05 04:44:55;;;;;;;6.30;3.97;;;23.20;49.10;;;;;;5085791;28;20104;-49
2021/08/05 04:47:27;;;;;;;6.35;3.20;;;23.20;49.90;;;;;;5094573;28;20054;-52
2021/08/05 04:50:00;;;;;;;7.28;4.03;;;23.30;49.50;;;;;;5094800;28;20075;-55
2021/08/05 04:52:37;;;;;;;9.30;3.20;;;23.30;49.30;;;;;;5096277;28;20118;-57
2021/08/05 04:55:10;;;;;;;4.55;3.00;;;23.20;48.50;;;;;;5090404;28;20035;-59
2021/08/05 04:57:59;;;;;;;8.20;3.70;;;23.30;49.40;;;;;;5094890;28;20054;-60
2021/08/05 05:00:39;;;;;;;7.22;3.72;;;23.30;49.60;;;;;;5099451;28;20024;-53
2021/08/05 05:03:11;;;;;;;5.15;3.00;;;23.20;49.20;;;;;;5096060;28;20027;-58
2021/08/05 05:05:53;;;;;;;6.05;2.92;;;23.30;48.30;;;;;;5094797;28;20052;-56
2021/08/05 05:08:25;;;;;;;8.60;3.50;;;23.20;49.50;;;;;;5075671;28;20035;-55
2021/08/05 05:10:58;;;;;;;7.57;2.63;;;23.20;49.70;;;;;;5098880;28;20042;-55
2021/08/05 05:13:46;;;;;;;8.43;3.45;;;23.30;48.10;;;;;;5098389;28;20028;-56
2021/08/05 05:16:22;;;;;;;8.32;2.90;;;23.30;48.10;;;;;;5093073;28;20076;-59
2021/08/05 05:18:52;;;;;;;5.85;3.08;;;23.20;49.30;;;;;;5094393;28;20028;-55
2021/08/05 05:21:23;;;;;;;6.00;3.13;;;23.20;50.00;;;;;;5075187;28;20486;-57
2021/08/05 05:24:07;;;;;;;7.90;3.00;;;23.10;48.80;;;;;;5088155;28;20162;-56
2021/08/05 05:26:40;;;;;;;6.55;3.33;;;23.10;50.00;;;;;;5097872;28;20031;-52
2021/08/05 05:29:11;;;;;;;14.25;4.32;;;23.00;49.40;;;;;;5097520;28;20043;-55
2021/08/05 05:31:44;;;;;;;4.03;2.58;;;23.10;49.80;;;;;;5095254;28;20056;-57
2021/08/05 05:34:17;;;;;;;4.18;2.03;;;23.00;49.90;;;;;;5092420;28;20073;-54
2021/08/05 05:36:50;;;;;;;4.72;2.58;;;22.80;48.70;;;;;;5097130;28;20066;-54
2021/08/05 05:39:20;;;;;;;4.50;2.58;;;22.90;50.40;;;;;;5095127;28;20092;-53
2021/08/05 05:42:01;;;;;;;5.43;2.95;;;22.90;49.70;;;;;;5101119;28;20022;-53
2021/08/05 05:44:31;;;;;;;4.72;2.50;;;22.90;50.70;;;;;;5076740;28;20451;-56
2021/08/05 05:47:18;;;;;;;2.60;1.98;;;22.90;49.20;;;;;;5098550;28;20111;-58
2021/08/05 05:49:59;;;;;;;4.60;1.85;;;22.80;48.10;;;;;;5100211;28;20031;-58
2021/08/05 05:52:30;;;;;;;4.20;2.33;;;22.80;50.50;;;;;;5097899;28;20039;-54
2021/08/05 05:55:11;;;;;;;4.20;2.08;;;22.80;49.30;;;;;;5090543;28;20591;-52
2021/08/05 06:00:29;;;;;;;9.98;2.20;;;22.60;50.10;;;;;;5085308;28;20040;-53
2021/08/05 06:03:09;;;;;;;7.63;2.10;;;22.50;50.90;;;;;;5101245;28;20073;-51
2021/08/05 06:05:40;;;;;;;4.30;2.50;;;22.40;50.50;;;;;;5096856;28;20023;-56
2021/08/05 06:08:27;;;;;;;7.45;2.67;;;22.40;50.40;;;;;;5099112;28;20042;-54
2021/08/05 06:11:00;;;;;;;3.40;2.05;;;22.20;50.60;;;;;;5095998;28;20047;-55
2021/08/05 06:13:35;;;;;;;9.50;2.05;;;22.10;49.60;;;;;;5101501;28;20046;-56
2021/08/05 06:16:05;;;;;;;3.00;1.80;;;22.00;50.40;;;;;;5092653;28;20122;-59
2021/08/05 06:18:33;;;;;;;4.65;2.20;;;21.90;49.70;;;;;;5104284;28;20039;-55
2021/08/05 06:21:03;;;;;;;4.97;2.08;;;21.70;51.80;;;;;;5100142;28;20032;-56
2021/08/05 06:23:33;;;;;;;3.30;1.88;;;21.50;50.70;;;;;;5108762;28;20497;-53
2021/08/05 06:26:22;;;;;;;6.32;2.45;;;21.40;51.90;;;;;;5098332;28;20110;-58
2021/08/05 06:29:06;;;;;;;9.65;2.72;;;21.10;53.10;;;;;;5099982;28;20600;-53
2021/08/05 06:31:39;;;;;;;4.40;1.48;;;20.90;53.20;;;;;;5079469;28;20060;-54
2021/08/05 06:34:14;;;;;;;6.10;2.00;;;20.70;52.60;;;;;;5098612;28;20115;-55
2021/08/05 06:36:47;;;;;;;3.97;1.80;;;20.60;54.00;;;;;;5097085;28;20114;-54
2021/08/05 06:39:23;;;;;;;4.45;2.15;;;20.40;54.50;;;;;;5095942;28;20026;-49
2021/08/05 06:42:02;;;;;;;3.08;1.73;;;20.20;53.70;;;;;;5094042;28;20030;-56
2021/08/05 06:44:35;;;;;;;5.60;2.40;;;20.10;55.50;;;;;;5088853;28;20032;-52
2021/08/05 06:47:07;;;;;;;4.43;1.73;;;20.00;55.70;;;;;;5095879;28;20027;-54
2021/08/05 06:49:40;;;;;;;4.40;1.35;;;19.80;55.50;;;;;;5089848;28;20079;-54
2021/08/05 06:52:11;;;;;;;3.28;1.58;;;19.70;56.10;;;;;;5094959;28;20042;-56
2021/08/05 06:54:41;;;;;;;2.40;1.55;;;19.60;56.40;;;;;;5087126;28;20043;-50
2021/08/05 06:57:37;;;;;;;15.52;1.70;;;19.50;56.70;;;;;;5099811;28;20046;-52
2021/08/05 07:00:18;;;;;;;2.50;1.27;;;19.40;57.20;;;;;;5091535;28;20031;-51
2021/08/05 07:02:45;;;;;;;1.67;1.30;;;19.30;56.00;;;;;;5103882;28;20462;-56
2021/08/05 07:05:16;;;;;;;5.03;1.50;;;19.20;57.70;;;;;;5105128;28;20080;-55
2021/08/05 07:07:47;;;;;;;1.85;1.42;;;19.20;56.70;;;;;;5104409;28;20035;-55
2021/08/05 07:10:14;;;;;;;2.70;1.65;;;19.10;57.70;;;;;;5085989;28;20036;-58
2021/08/05 07:12:47;;;;;;;2.70;1.30;;;19.00;58.70;;;;;;5102778;28;20589;-52
2021/08/05 07:15:17;;;;;;;5.28;1.65;;;18.90;59.30;;;;;;5104575;28;20050;-53
2021/08/05 07:21:27;;;;;;;;;;;18.80;59.10;;;;;;5090777;28;20176;-57
2021/08/05 07:23:56;;;;;;;2.78;1.60;;;18.70;59.10;;;;;;5104655;28;19964;-54
2021/08/05 07:26:35;;;;;;;3.17;1.63;;;18.70;58.80;;;;;;5103823;28;20019;-49
2021/08/05 07:29:02;;;;;;;2.75;1.23;;;18.70;59.70;;;;;;5105039;28;20739;-57
2021/08/05 07:31:33;;;;;;;4.13;1.10;;;18.60;60.20;;;;;;5105263;28;20046;-51
2021/08/05 07:34:04;;;;;;;3.08;1.33;;;18.50;60.60;;;;;;5105420;28;20385;-58
2021/08/05 07:36:39;;;;;;;3.85;1.52;;;18.50;60.10;;;;;;5105169;28;20084;-60
2021/08/05 07:39:29;;;;;;;1.70;1.10;;;18.50;60.10;;;;;;5106897;28;20058;-56
2021/08/05 07:42:06;;;;;;;6.35;1.20;;;18.50;60.20;;;;;;5086042;28;20083;-55
2021/08/05 07:44:39;;;;;;;1.60;1.00;;;18.40;61.20;;;;;;5108132;28;20060;-61
2021/08/05 07:47:06;;;;;;;3.15;1.00;;;18.30;60.90;;;;;;5109403;28;20547;-57
2021/08/05 07:49:35;;;;;;;3.50;1.58;;;18.30;60.40;;;;;;5108803;28;20048;-55
2021/08/05 07:52:10;;;;;;;3.15;1.25;;;18.30;60.90;;;;;;5109290;28;20097;-62
2021/08/05 07:54:41;;;;;;;4.47;1.40;;;18.20;60.90;;;;;;5110404;28;20035;-61
2021/08/05 07:57:11;;;;;;;8.70;1.45;;;18.20;61.30;;;;;;5112782;28;20027;-61
2021/08/05 07:59:38;;;;;;;3.08;1.20;;;18.20;61.30;;;;;;5113028;28;20036;-56
2021/08/05 08:02:18;;;;;;;2.08;1.25;;;18.10;61.20;;;;;;5093431;28;20047;-61
2021/08/05 08:04:54;;;;;;;5.45;0.90;;;18.10;61.10;;;;;;5112525;28;20108;-61
2021/08/05 08:07:30;;;;;;;2.30;1.40;;;18.10;61.30;;;;;;5092661;28;20036;-57
2021/08/05 08:09:58;;;;;;;2.58;1.27;;;18.00;61.90;;;;;;5106012;27;20028;-60
2021/08/05 08:12:28;;;;;;;3.63;1.50;;;18.00;61.50;;;;;;5095555;28;20036;-58
2021/08/05 08:14:58;;;;;;;1.73;1.10;;;18.00;61.80;;;;;;5102213;28;20020;-55
2021/08/05 08:17:28;;;;;;;1.70;0.88;;;18.00;61.90;;;;;;5106474;28;20152;-54
2021/08/05 08:19:55;;;;;;;2.55;1.27;;;18.00;62.00;;;;;;5104182;28;20043;-54
2021/08/05 08:22:26;;;;;;;2.22;0.95;;;18.00;61.90;;;;;;5106296;28;20122;-51
2021/08/05 08:25:19;;;;;;;2.75;1.20;;;17.90;61.80;;;;;;5101184;28;20076;-52
2021/08/05 08:28:07;;;;;;;1.50;1.00;;;17.90;61.80;;;;;;5083540;28;20047;-51
2021/08/05 08:30:41;;;;;;;1.20;1.10;;;17.90;61.80;;;;;;5098567;28;20051;-59
2021/08/05 08:33:11;;;;;;;2.22;1.30;;;17.90;61.90;;;;;;5099949;28;20031;-56
2021/08/05 08:35:44;;;;;;;1.13;0.98;;;17.90;61.90;;;;;;5099981;28;20028;-54
2021/08/05 08:38:24;;;;;;;2.50;1.75;;;17.80;61.80;;;;;;5097456;28;20028;-62
2021/08/05 08:40:59;;;;;;;1.90;1.45;;;17.80;61.70;;;;;;5084037;28;20024;-60
2021/08/05 08:43:28;;;;;;;2.22;1.73;;;17.80;61.80;;;;;;5097270;28;20031;-53
2021/08/05 08:48:58;;;;;;;2.00;1.58;;;17.80;61.60;;;;;;5085285;28;20512;-52
2021/08/05 08:51:37;;;;;;;2.75;1.42;;;17.70;61.70;;;;;;5096128;28;20020;-51
2021/08/05 08:54:08;;;;;;;3.10;1.55;;;17.70;61.80;;;;;;5092902;28;20674;-54
2021/08/05 08:56:50;;;;;;;1.50;1.25;;;17.70;61.20;;;;;;5094862;28;20032;-62
2021/08/05 08:59:23;;;;;;;2.92;1.65;;;17.60;62.10;;;;;;5092474;28;20092;-55
2021/08/05 09:01:56;;;;;;;2.58;1.88;;;17.60;62.10;;;;;;5094286;28;20020;-55
2021/08/05 09:04:28;;;;;;;3.58;1.90;;;17.60;61.80;;;;;;5098369;28;20082;-60
2021/08/05 09:06:58;;;;;;;3.17;1.95;;;17.60;61.90;;;;;;5097012;28;20946;-57
2021/08/05 09:09:31;;;;;;;2.30;1.45;;;17.60;61.80;;;;;;5080540;28;20044;-51
2021/08/05 09:12:16;;;;;;;2.50;1.60;;;17.60;61.70;;;;;;5094217;28;20427;-58
2021/08/05 09:14:53;;;;;;;4.63;2.00;;;17.60;62.00;;;;;;5093198;28;20552;-59
2021/08/05 09:17:29;;;;;;;1.63;1.40;;;17.60;61.70;;;;;;5093609;28;20024;-57
2021/08/05 09:20:02;;;;;;;1.98;1.20;;;17.60;61.80;;;;;;5093820;28;20162;-55
2021/08/05 09:22:46;;;;;;;2.72;1.42;;;17.50;61.50;;;;;;5097233;28;20028;-57
2021/08/05 09:25:23;;;;;;;3.45;1.58;;;17.50;61.70;;;;;;5098078;28;20069;-57
2021/08/05 09:28:25;;;;;;;1.65;1.20;;;17.50;61.70;;;;;;5092847;28;20032;-58
2021/08/05 09:30:58;;;;;;;1.27;1.00;;;17.50;61.60;;;;;;5091116;28;20056;-52
2021/08/05 09:33:39;;;;;;;2.47;1.30;;;17.50;61.40;;;;;;5093433;28;20126;-59
2021/08/05 09:36:41;;;;;;;2.15;1.17;;;17.50;61.50;;;;;;5091316;28;20394;-54
2021/08/05 09:39:39;;;;;;;2.35;0.88;;;17.50;61.60;;;;;;5087332;28;20055;-50
2021/08/05 09:42:20;;;;;;;1.52;1.08;;;17.40;61.50;;;;;;5095460;28;20039;-60
2021/08/05 09:45:02;;;;;;;2.45;1.25;;;17.40;61.60;;;;;;5098172;28;20028;-55
2021/08/05 09:47:46;;;;;;;1.67;1.27;;;17.40;61.60;;;;;;5096907;28;20113;-57
2021/08/05 09:50:30;;;;;;;1.65;1.00;;;17.30;61.10;;;;;;5094368;28;20506;-56
2021/08/05 09:53:15;;;;;;;2.00;1.17;;;17.40;62.00;;;;;;5089170;28;20038;-53
2021/08/05 09:55:43;;;;;;;1.08;0.90;;;17.40;62.10;;;;;;5089189;28;20133;-56
2021/08/05 09:58:28;;;;;;;1.40;0.90;;;17.30;62.00;;;;;;5092184;28;20046;-58
2021/08/05 10:01:08;;;;;;;2.80;1.48;;;17.30;61.90;;;;;;5090484;28;20071;-53
2021/08/05 10:03:45;;;;;;;2.05;1.27;;;17.30;61.70;;;;;;5097341;28;20024;-57
2021/08/05 10:06:44;;;;;;;1.77;1.08;;;17.30;61.90;;;;;;5073571;28;20036;-58
2021/08/05 10:09:32;;;;;;;2.25;1.05;;;17.30;61.90;;;;;;5080011;28;20083;-59
2021/08/05 10:12:30;;;;;;;2.40;0.95;;;17.20;61.80;;;;;;5074454;28;20036;-55
2021/08/05 10:15:17;;;;;;;0.93;0.80;;;17.20;61.80;;;;;;5090704;28;20100;-59
2021/08/05 10:17:44;;;;;;;2.10;1.30;;;17.20;61.70;;;;;;5092516;28;20028;-61
2021/08/05 10:20:18;;;;;;;1.92;1.33;;;17.20;61.80;;;;;;5088179;28;20114;-58
2021/08/05 10:22:48;;;;;;;1.00;0.80;;;17.20;62.40;;;;;;5097060;28;20119;-61
2021/08/05 10:25:39;;;;;;;1.20;1.00;;;17.20;61.80;;;;;;5092392;28;20024;-62
2021/08/05 10:28:12;;;;;;;1.75;0.80;;;17.20;61.80;;;;;;5078660;28;20113;-52
2021/08/05 10:30:49;;;;;;;1.27;0.85;;;17.20;61.60;;;;;;5094539;28;20093;-56
2021/08/05 10:33:25;;;;;;;1.63;0.70;;;17.20;61.80;;;;;;5100305;28;20110;-54
2021/08/05 10:36:05;;;;;;;1.20;0.70;;;17.10;61.70;;;;;;5097344;28;20031;-52
2021/08/05 10:38:55;;;;;;;1.00;0.70;;;17.10;61.80;;;;;;5089261;28;20039;-54
2021/08/05 10:41:29;;;;;;;1.85;0.93;;;17.10;61.70;;;;;;5095846;28;20435;-55
2021/08/05 10:44:13;;;;;;;1.55;1.20;;;17.10;61.80;;;;;;5075654;28;20020;-53
2021/08/05 10:46:44;;;;;;;1.55;0.95;;;17.00;61.80;;;;;;5074895;28;20747;-50
2021/08/05 10:49:32;;;;;;;1.83;0.90;;;17.00;61.80;;;;;;5093945;28;20178;-58
2021/08/05 10:52:08;;;;;;;1.10;0.60;;;17.00;61.80;;;;;;5100118;28;20036;-50
2021/08/05 10:55:36;;;;;;;1.75;0.70;;;17.00;61.80;;;;;;5088971;28;20084;-58
2021/08/05 10:58:28;;;;;;;1.05;0.88;;;17.00;62.00;;;;;;5095721;28;20019;-57
2021/08/05 11:01:16;;;;;;;1.13;0.68;;;16.90;61.90;;;;;;5099549;28;20105;-52
2021/08/05 11:03:46;;;;;;;0.70;0.70;;;16.90;61.90;;;;;;5089005;28;20050;-58
2021/08/05 11:06:33;;;;;;;1.73;0.70;;;17.00;62.00;;;;;;5077787;28;20672;-59
2021/08/05 11:09:31;;;;;;;1.58;0.80;;;16.90;62.00;;;;;;5088421;28;20043;-60
2021/08/05 11:12:36;;;;;;;1.42;0.80;;;16.90;61.90;;;;;;5091832;28;20035;-56
2021/08/05 11:15:03;;;;;;;1.10;0.77;;;16.90;62.00;;;;;;5092623;28;20036;-57
2021/08/05 11:18:21;;;;;;;1.02;0.82;;;16.90;62.20;;;;;;5090483;28;20027;-50
2021/08/05 11:21:00;;;;;;;1.13;0.75;;;16.90;62.10;;;;;;5096303;28;20108;-55
2021/08/05 11:23:39;;;;;;;0.93;0.73;;;16.80;62.10;;;;;;5096372;28;20024;-55
2021/08/05 11:26:33;;;;;;;1.95;0.75;;;16.80;62.10;;;;;;5088403;28;20094;-51
2021/08/05 11:29:06;;;;;;;1.00;0.68;;;16.80;62.10;;;;;;5076167;28;20598;-52
2021/08/05 11:31:57;;;;;;;1.08;0.70;;;16.80;62.20;;;;;;5087937;28;20421;-49
2021/08/05 11:35:28;;;;;;;0.98;0.68;;;16.70;62.20;;;;;;5091382;28;20549;-57
2021/08/05 11:38:15;;;;;;;1.48;0.70;;;16.70;62.10;;;;;;5033598;28;20043;-57
2021/08/05 11:40:43;;;;;;;3.70;0.95;;;16.70;62.30;;;;;;5091331;28;20024;-56
2021/08/05 11:43:40;;;;;;;4.47;1.00;;;16.70;62.30;;;;;;5091943;28;20055;-59
2021/08/05 11:46:36;;;;;;;2.10;0.63;;;16.70;62.50;;;;;;5088346;28;20043;-59
2021/08/05 11:49:06;;;;;;;1.20;0.85;;;16.70;62.50;;;;;;5073743;28;20036;-56
2021/08/05 11:51:37;;;;;;;1.08;0.82;;;16.70;62.30;;;;;;5095829;28;20039;-52
2021/08/05 11:54:10;;;;;;;0.98;0.55;;;16.60;62.30;;;;;;5092082;28;20024;-53
2021/08/05 11:56:40;;;;;;;0.52;0.50;;;16.70;62.40;;;;;;5094961;28;20053;-55
2021/08/05 11:59:27;;;;;;;1.77;0.70;;;16.70;62.30;;;;;;5088958;28;20023;-56
2021/08/05 12:02:11;;;;;;;1.23;0.35;;;16.70;62.30;;;;;;5094524;28;20043;-56
2021/08/05 12:04:45;;;;;;;1.02;0.77;;;16.60;62.30;;;;;;5093145;28;20043;-57
2021/08/05 12:07:48;;;;;;;1.17;0.82;;;16.60;62.10;;;;;;5096453;28;20032;-57
2021/08/05 12:10:35;;;;;;;0.43;0.40;;;16.60;62.30;;;;;;5052425;28;20067;-57
2021/08/05 12:13:19;;;;;;;2.83;0.60;;;16.60;62.30;;;;;;5094777;28;20077;-54
2021/08/05 12:15:55;;;;;;;0.75;0.45;;;16.60;62.40;;;;;;5088997;28;20573;-54
2021/08/05 12:18:27;;;;;;;1.08;0.63;;;16.50;62.40;;;;;;5095783;28;20038;-53
2021/08/05 12:21:04;;;;;;;1.60;0.90;;;16.60;62.40;;;;;;5096168;28;20043;-54
2021/08/05 12:23:51;;;;;;;1.35;0.75;;;16.50;62.40;;;;;;5094375;28;20040;-53
2021/08/05 12:26:41;;;;;;;1.20;0.80;;;16.50;62.40;;;;;;5092224;28;20082;-57
2021/08/05 12:29:10;;;;;;;0.80;0.68;;;16.50;62.40;;;;;;5073805;28;20387;-52
2021/08/05 12:31:44;;;;;;;1.70;0.80;;;16.50;62.40;;;;;;5086240;28;20577;-50
2021/08/05 12:34:14;;;;;;;3.00;0.50;;;16.50;62.50;;;;;;5082923;28;20621;-61
2021/08/05 12:36:51;;;;;;;1.00;0.68;;;16.50;62.50;;;;;;5100985;28;20062;-59
2021/08/05 12:39:27;;;;;;;1.23;0.63;;;16.40;62.50;;;;;;5104577;28;20428;-61
2021/08/05 12:41:57;;;;;;;0.90;0.50;;;16.40;62.60;;;;;;5088315;28;20028;-61
2021/08/05 12:44:34;;;;;;;1.25;0.60;;;16.40;62.70;;;;;;5107507;28;20456;-58
2021/08/05 12:47:04;;;;;;;0.90;0.77;;;16.40;62.70;;;;;;5091073;28;20104;-60
2021/08/05 12:49:45;;;;;;;0.75;0.52;;;16.30;62.80;;;;;;5107765;28;20043;-57
2021/08/05 12:52:16;;;;;;;1.48;0.80;;;16.30;62.90;;;;;;5107764;28;20079;-59
2021/08/05 12:55:00;;;;;;;2.85;1.00;;;16.30;62.80;;;;;;5107585;28;20035;-60
2021/08/05 12:57:39;;;;;;;1.00;0.90;;;16.30;62.90;;;;;;5107788;28;20038;-61
2021/08/05 13:00:42;;;;;;;1.00;0.60;;;16.20;62.90;;;;;;5107088;28;20031;-58
2021/08/05 13:03:21;;;;;;;0.93;0.60;;;16.20;63.10;;;;;;5106983;28;20510;-62
2021/08/05 13:06:07;;;;;;;0.50;0.50;;;16.20;63.30;;;;;;5104522;28;20061;-59
2021/08/05 13:08:41;;;;;;;1.88;0.65;;;16.20;63.30;;;;;;5107535;28;20034;-59
2021/08/05 13:11:33;;;;;;;0.85;0.40;;;16.10;63.40;;;;;;5107660;28;20036;-61
2021/08/05 13:14:01;;;;;;;0.90;0.73;;;16.10;63.60;;;;;;5107588;28;20119;-60
2021/08/05 13:16:33;;;;;;;0.75;0.60;;;16.10;63.80;;;;;;5107471;28;20037;-59
2021/08/05 13:19:38;;;;;;;1.35;0.80;;;16.10;63.80;;;;;;5107674;28;20114;-61
2021/08/05 13:22:08;;;;;;;1.17;0.85;;;16.10;63.80;;;;;;5071704;28;20038;-57
2021/08/05 13:24:38;;;;;;;0.82;0.73;;;16.00;63.90;;;;;;5107543;28;20030;-57
2021/08/05 13:28:00;;;;;;;1.73;0.80;;;16.00;64.10;;;;;;5104109;28;20042;-60
2021/08/05 13:30:39;;;;;;;1.77;0.90;;;15.90;64.10;;;;;;5055653;28;20123;-58
2021/08/05 13:33:25;;;;;;;2.03;0.95;;;15.90;64.20;;;;;;5089141;28;20038;-61
2021/08/05 13:35:58;;;;;;;1.23;0.88;;;15.90;64.20;;;;;;5107217;28;20035;-58
2021/08/05 13:38:48;;;;;;;1.27;0.70;;;15.90;64.20;;;;;;5088373;28;20118;-60
2021/08/05 13:41:18;;;;;;;1.35;0.80;;;15.90;64.20;;;;;;5107263;28;20039;-57
2021/08/05 13:43:49;;;;;;;1.35;0.95;;;15.80;64.20;;;;;;5111959;28;20127;-59
2021/08/05 13:46:31;;;;;;;1.10;0.73;;;15.80;64.20;;;;;;5111834;28;20039;-58
2021/08/05 13:49:04;;;;;;;0.93;0.75;;;15.80;64.60;;;;;;5111519;28;20503;-57